Time;durP1;ratioP1;P1;durP2;ratioP2;P2;SDS_P1;SDS_P2;PMS_P1;PMS_P2;Temp;Humidity;BMP_temperature;BMP_pressure;BME280_temperature;BME280_humidity;BME280_pressure;Samples;Min_cycle;Max_cycle;Signal;HPM_P1;HPM_P2
2021/12/16 00:02:20;;;;;;;61.57;29.13;;;8.50;99.90;;;;;;5074350;28;20260;-49
2021/12/16 00:07:32;;;;;;;64.70;30.13;;;8.50;99.90;;;;;;5073975;28;20179;-48
2021/12/16 00:10:04;;;;;;;61.03;28.93;;;8.50;99.90;;;;;;5056053;28;20178;-47
2021/12/16 00:29:30;;;;;;;67.23;28.67;;;8.50;99.90;;;;;;5074029;28;20329;-48
2021/12/16 00:31:55;;;;;;;69.87;31.50;;;8.50;99.90;;;;;;5072951;28;20207;-48
2021/12/16 00:34:23;;;;;;;64.97;29.50;;;8.50;99.90;;;;;;5040129;28;20167;-50
2021/12/16 00:36:50;;;;;;;65.67;30.90;;;8.50;99.90;;;;;;5055445;28;20234;-48
2021/12/16 00:39:24;;;;;;;65.30;31.50;;;8.50;99.90;;;;;;5055627;28;20255;-49
2021/12/16 00:41:58;;;;;;;69.53;31.17;;;8.50;99.90;;;;;;5073691;28;20591;-50
2021/12/16 00:44:51;;;;;;;66.23;29.63;;;8.50;99.90;;;;;;5073458;28;20627;-48
2021/12/16 00:47:31;;;;;;;60.10;28.40;;;8.50;99.90;;;;;;5073371;28;20582;-49
2021/12/16 00:50:17;;;;;;;67.50;31.43;;;8.50;99.90;;;;;;5055603;28;20550;-50
2021/12/16 00:55:43;;;;;;;70.67;32.07;;;8.60;99.90;;;;;;5073950;28;20182;-47
2021/12/16 00:58:09;;;;;;;72.03;31.83;;;8.60;99.90;;;;;;5057938;28;20183;-47
2021/12/16 01:00:36;;;;;;;68.00;32.00;;;8.60;99.90;;;;;;5073514;28;20728;-47
2021/12/16 01:03:21;;;;;;;69.63;31.17;;;8.60;99.90;;;;;;5055483;28;20211;-46
2021/12/16 01:06:08;;;;;;;66.77;30.20;;;8.60;99.90;;;;;;5055280;28;20196;-48
2021/12/16 01:36:41;;;;;;;77.87;33.23;;;8.60;99.90;;;;;;5073732;28;20167;-47
2021/12/16 01:47:22;;;;;;;70.80;30.13;;;8.60;99.90;;;;;;5073024;28;20167;-46
2021/12/16 01:52:42;;;;;;;67.23;30.33;;;8.60;99.90;;;;;;5072944;28;20239;-46
2021/12/16 01:55:47;;;;;;;71.70;31.37;;;8.50;99.90;;;;;;5054973;28;20195;-47
2021/12/16 01:58:18;;;;;;;64.80;29.60;;;8.50;99.90;;;;;;5069194;28;20222;-47
2021/12/16 02:01:18;;;;;;;64.63;29.23;;;8.50;99.90;;;;;;5057446;28;20526;-47
2021/12/16 02:03:48;;;;;;;68.93;30.47;;;8.50;99.90;;;;;;5058618;28;20195;-48
2021/12/16 02:08:54;;;;;;;71.90;30.93;;;8.60;99.90;;;;;;5076857;28;20152;-47
2021/12/16 02:28:13;;;;;;;70.23;30.87;;;8.50;99.90;;;;;;5076473;28;20233;-48
2021/12/16 02:36:43;;;;;;;59.07;27.90;;;8.40;99.90;;;;;;5052862;28;20188;-48
2021/12/16 02:39:13;;;;;;;58.90;28.83;;;8.50;99.90;;;;;;5075886;28;20703;-48
2021/12/16 02:41:42;;;;;;;69.53;30.20;;;8.50;99.90;;;;;;5075900;28;20246;-47
2021/12/16 02:49:21;;;;;;;63.90;29.47;;;8.50;99.90;;;;;;5076052;28;20580;-46
2021/12/16 02:51:47;;;;;;;63.20;29.47;;;8.50;99.90;;;;;;5075836;28;20595;-47
2021/12/16 02:54:14;;;;;;;68.37;29.77;;;8.50;99.90;;;;;;5057650;28;20175;-46
2021/12/16 02:56:40;;;;;;;60.43;29.90;;;8.50;99.90;;;;;;5057718;28;20180;-47
2021/12/16 02:59:06;;;;;;;64.00;30.53;;;8.50;99.90;;;;;;5075430;28;20190;-48
2021/12/16 03:01:45;;;;;;;63.57;29.57;;;8.50;99.90;;;;;;5075737;28;20195;-47
2021/12/16 03:04:15;;;;;;;65.33;28.73;;;8.50;99.90;;;;;;5075309;28;20194;-47
2021/12/16 03:06:44;;;;;;;64.00;30.73;;;8.40;99.90;;;;;;5057427;28;20314;-47
2021/12/16 03:09:13;;;;;;;65.80;31.00;;;8.40;99.90;;;;;;5057295;28;20176;-47
2021/12/16 03:19:25;;;;;;;72.13;29.37;;;8.40;99.90;;;;;;5060124;28;20529;-47
2021/12/16 03:21:55;;;;;;;74.67;32.00;;;8.40;99.90;;;;;;5057819;28;20201;-48
2021/12/16 03:37:43;;;;;;;66.27;30.03;;;8.40;99.90;;;;;;5075503;28;20239;-48
2021/12/16 03:40:13;;;;;;;62.67;30.13;;;8.40;99.90;;;;;;5056711;28;20229;-49
2021/12/16 03:42:40;;;;;;;62.27;29.43;;;8.40;99.90;;;;;;5074546;28;20789;-48
2021/12/16 03:48:06;;;;;;;69.77;29.77;;;8.40;99.90;;;;;;5074844;28;20206;-48
2021/12/16 03:50:31;;;;;;;62.43;28.90;;;8.30;99.90;;;;;;5056691;28;20198;-48
2021/12/16 03:52:57;;;;;;;64.97;30.17;;;8.40;99.90;;;;;;5074498;28;20230;-48
2021/12/16 03:55:24;;;;;;;60.60;27.70;;;8.30;99.90;;;;;;5074555;28;20289;-48
2021/12/16 03:57:50;;;;;;;66.03;30.53;;;8.30;99.90;;;;;;5074299;28;20183;-49
2021/12/16 04:00:25;;;;;;;65.33;30.73;;;8.30;99.90;;;;;;5056134;28;20180;-48
2021/12/16 04:02:51;;;;;;;66.67;29.53;;;8.30;99.90;;;;;;5074314;28;20562;-48
2021/12/16 04:05:18;;;;;;;68.40;31.10;;;8.30;99.90;;;;;;5056122;28;20195;-48
2021/12/16 04:07:44;;;;;;;66.03;29.40;;;8.30;99.90;;;;;;5074302;28;20175;-47
2021/12/16 04:10:19;;;;;;;63.80;28.97;;;8.30;99.90;;;;;;5056425;28;20270;-49
2021/12/16 04:12:48;;;;;;;65.63;29.93;;;8.30;99.90;;;;;;5073851;28;20734;-48
2021/12/16 04:15:14;;;;;;;71.20;30.63;;;8.30;99.90;;;;;;5055844;28;20543;-47
2021/12/16 04:17:39;;;;;;;70.20;30.67;;;8.30;99.90;;;;;;5055654;28;20273;-48
2021/12/16 04:20:09;;;;;;;62.50;28.73;;;8.30;99.90;;;;;;5074030;28;20176;-48
2021/12/16 04:22:41;;;;;;;72.80;29.17;;;8.30;99.90;;;;;;5073641;28;20199;-47
2021/12/16 04:25:12;;;;;;;59.77;29.03;;;8.30;99.90;;;;;;5073621;28;20207;-48
2021/12/16 04:27:39;;;;;;;65.83;30.67;;;8.20;99.90;;;;;;5073042;28;20258;-46
2021/12/16 04:30:07;;;;;;;65.77;30.30;;;8.20;99.90;;;;;;5074467;28;20183;-48
2021/12/16 04:32:33;;;;;;;65.43;29.20;;;8.20;99.90;;;;;;5055493;28;20254;-47
2021/12/16 04:34:59;;;;;;;61.33;29.80;;;8.20;99.90;;;;;;5055714;28;20600;-48
2021/12/16 04:37:25;;;;;;;61.80;28.63;;;8.20;99.90;;;;;;5055805;28;20674;-48
2021/12/16 04:39:51;;;;;;;57.20;29.40;;;8.20;99.90;;;;;;5038848;28;20297;-48
2021/12/16 04:42:19;;;;;;;67.30;31.53;;;8.20;99.90;;;;;;5074074;28;20253;-47
2021/12/16 04:44:46;;;;;;;62.97;29.67;;;8.20;99.90;;;;;;5056913;28;20196;-48
2021/12/16 04:47:13;;;;;;;66.67;30.00;;;8.20;99.90;;;;;;5056232;28;20693;-47
2021/12/16 04:49:39;;;;;;;60.50;29.07;;;8.20;99.90;;;;;;5055446;28;20585;-48
2021/12/16 04:52:09;;;;;;;66.13;28.50;;;8.10;99.90;;;;;;5073269;28;20237;-48
2021/12/16 04:54:36;;;;;;;63.97;29.87;;;8.10;99.90;;;;;;5073395;28;20202;-48
2021/12/16 04:57:02;;;;;;;58.10;28.77;;;8.10;99.90;;;;;;5073576;28;20179;-46
2021/12/16 04:59:30;;;;;;;61.13;29.97;;;8.10;99.90;;;;;;5073305;28;20175;-48
2021/12/16 05:02:04;;;;;;;63.57;30.17;;;8.10;99.90;;;;;;5055525;28;20290;-48
2021/12/16 05:04:29;;;;;;;59.70;28.43;;;8.10;99.90;;;;;;5073249;28;20191;-48
2021/12/16 05:06:55;;;;;;;60.90;28.63;;;8.00;99.90;;;;;;5073443;28;20229;-48
2021/12/16 05:12:19;;;;;;;60.77;28.63;;;8.00;99.90;;;;;;5058584;28;20214;-49
2021/12/16 05:14:46;;;;;;;51.73;26.53;;;7.90;99.90;;;;;;5055425;28;20194;-48
2021/12/16 05:17:36;;;;;;;62.47;29.13;;;7.90;99.90;;;;;;5073445;28;20184;-48
2021/12/16 05:20:06;;;;;;;60.73;28.73;;;7.90;99.90;;;;;;5055303;28;20175;-48
2021/12/16 05:28:05;;;;;;;50.80;26.70;;;7.80;99.90;;;;;;5044482;28;20620;-48
2021/12/16 05:30:33;;;;;;;53.43;27.60;;;7.70;99.90;;;;;;5073485;28;20271;-49
2021/12/16 05:32:59;;;;;;;55.43;28.73;;;7.70;99.90;;;;;;5055003;28;20746;-48
2021/12/16 05:35:26;;;;;;;59.27;29.50;;;7.60;99.90;;;;;;5073098;28;20270;-49
2021/12/16 05:37:53;;;;;;;56.93;28.30;;;7.60;99.90;;;;;;5056013;28;20182;-48
2021/12/16 05:40:25;;;;;;;57.90;27.53;;;7.60;99.90;;;;;;5076945;28;20696;-49
2021/12/16 05:42:57;;;;;;;63.53;29.67;;;7.60;99.90;;;;;;5058771;28;20626;-46
2021/12/16 05:45:23;;;;;;;52.53;28.67;;;7.60;99.90;;;;;;5077237;28;20277;-48
2021/12/16 05:47:50;;;;;;;54.13;28.07;;;7.50;99.90;;;;;;5059222;28;20258;-48
2021/12/16 05:50:17;;;;;;;54.03;27.63;;;7.50;99.90;;;;;;5076577;28;20669;-49
2021/12/16 05:52:43;;;;;;;50.33;26.80;;;7.50;99.90;;;;;;5059181;28;20192;-48
2021/12/16 05:55:12;;;;;;;57.47;29.17;;;7.40;99.90;;;;;;5058809;28;20655;-47
2021/12/16 05:57:39;;;;;;;54.27;27.23;;;7.40;99.90;;;;;;5042141;28;20709;-47
2021/12/16 06:00:11;;;;;;;54.53;27.40;;;7.40;99.90;;;;;;5058695;28;20182;-47
2021/12/16 06:02:37;;;;;;;52.83;27.80;;;7.40;99.90;;;;;;5076402;28;20308;-46
2021/12/16 06:05:03;;;;;;;58.00;26.90;;;7.30;99.90;;;;;;5077010;28;20298;-48
2021/12/16 06:07:29;;;;;;;56.53;28.37;;;7.30;99.90;;;;;;5058597;28;20180;-48
2021/12/16 06:13:17;;;;;;;50.20;27.13;;;7.30;99.90;;;;;;5076313;28;20745;-48
2021/12/16 06:22:19;;;;;;;52.10;27.40;;;7.20;99.90;;;;;;5076173;28;20198;-48
2021/12/16 06:28:52;;;;;;;53.47;27.30;;;7.10;99.90;;;;;;5076051;28;20236;-50
2021/12/16 06:31:18;;;;;;;53.20;26.30;;;7.10;99.90;;;;;;5058061;28;20191;-49
2021/12/16 06:33:46;;;;;;;50.87;26.80;;;7.00;99.90;;;;;;5076099;28;20164;-47
2021/12/16 06:36:12;;;;;;;48.07;25.50;;;7.00;99.90;;;;;;5076178;28;20185;-47
2021/12/16 06:38:38;;;;;;;51.27;25.50;;;6.90;99.90;;;;;;5075852;28;20176;-46
2021/12/16 06:41:04;;;;;;;44.07;24.20;;;6.90;99.90;;;;;;5075766;28;20527;-47
2021/12/16 06:43:31;;;;;;;48.20;26.53;;;6.80;99.90;;;;;;5038224;28;20657;-47
2021/12/16 06:45:58;;;;;;;48.13;25.63;;;6.80;99.90;;;;;;5057708;28;20229;-48
2021/12/16 06:48:29;;;;;;;44.33;24.40;;;6.70;99.90;;;;;;5075831;28;20584;-48
2021/12/16 06:51:01;;;;;;;46.67;24.73;;;6.70;99.90;;;;;;5057147;28;20179;-48
2021/12/16 06:53:33;;;;;;;48.40;25.23;;;6.60;99.90;;;;;;5057767;28;20189;-49
2021/12/16 06:58:35;;;;;;;46.27;26.23;;;6.60;99.90;;;;;;5076505;28;20202;-47
2021/12/16 07:02:01;;;;;;;53.90;26.07;;;6.60;99.90;;;;;;5057910;28;20191;-48
2021/12/16 07:03:54;;;;;;;52.07;25.17;;;6.60;99.90;;;;;;5064372;28;20198;-48
2021/12/16 07:06:23;;;;;;;53.90;26.93;;;6.60;99.90;;;;;;5075574;28;20297;-49
2021/12/16 07:08:52;;;;;;;51.13;26.93;;;6.60;99.90;;;;;;5075397;28;20176;-49
2021/12/16 07:11:19;;;;;;;53.17;27.03;;;6.60;99.90;;;;;;5057126;28;20187;-48
2021/12/16 07:13:56;;;;;;;52.33;27.70;;;6.60;99.90;;;;;;5057153;28;20276;-48
2021/12/16 07:16:22;;;;;;;52.03;27.30;;;6.50;99.90;;;;;;5075324;28;20589;-49
2021/12/16 07:18:48;;;;;;;48.90;27.33;;;6.50;99.90;;;;;;5075106;28;20179;-49
2021/12/16 07:21:14;;;;;;;45.53;25.13;;;6.50;99.90;;;;;;5075322;28;20190;-49
2021/12/16 07:23:39;;;;;;;48.63;25.43;;;6.50;99.90;;;;;;5057028;28;20181;-49
2021/12/16 07:26:05;;;;;;;46.03;24.50;;;6.50;99.90;;;;;;5074901;28;20211;-48
2021/12/16 07:28:31;;;;;;;40.40;23.27;;;6.40;99.90;;;;;;5075125;28;20181;-49
2021/12/16 07:30:57;;;;;;;42.80;23.17;;;6.40;99.90;;;;;;5056828;28;20185;-49
2021/12/16 07:33:24;;;;;;;39.63;21.87;;;6.30;99.90;;;;;;5075091;28;20265;-47
2021/12/16 07:35:50;;;;;;;34.33;21.07;;;6.30;99.90;;;;;;5074850;28;20187;-49
2021/12/16 07:38:17;;;;;;;39.17;21.73;;;6.20;99.90;;;;;;5074954;28;20273;-47
2021/12/16 07:40:44;;;;;;;38.40;21.80;;;6.10;99.90;;;;;;5056762;28;20534;-49
2021/12/16 07:43:23;;;;;;;39.00;21.60;;;6.00;99.90;;;;;;5039835;28;20220;-50
2021/12/16 07:45:51;;;;;;;37.77;20.57;;;6.00;99.90;;;;;;5056405;28;20206;-48
2021/12/16 07:48:19;;;;;;;37.27;20.27;;;5.90;99.90;;;;;;5074396;28;20261;-49
2021/12/16 07:50:48;;;;;;;35.53;20.53;;;5.90;99.90;;;;;;5056343;28;20186;-47
2021/12/16 07:53:14;;;;;;;38.40;21.40;;;5.90;99.90;;;;;;5039732;28;20289;-48
2021/12/16 07:55:42;;;;;;;37.57;21.63;;;5.90;99.90;;;;;;5056275;28;20767;-49
2021/12/16 07:58:09;;;;;;;46.27;23.50;;;5.90;99.90;;;;;;5056332;28;20204;-49
2021/12/16 08:00:35;;;;;;;43.43;23.20;;;5.90;99.90;;;;;;5056135;28;20189;-49
2021/12/16 08:03:03;;;;;;;46.27;24.27;;;5.90;99.90;;;;;;5073391;28;20213;-49
2021/12/16 08:05:33;;;;;;;47.33;24.87;;;5.90;99.90;;;;;;5056525;28;20299;-48
2021/12/16 08:07:59;;;;;;;46.10;24.67;;;6.00;99.90;;;;;;5057472;28;20262;-48
2021/12/16 08:10:25;;;;;;;43.97;23.60;;;6.00;99.90;;;;;;5056687;28;20228;-52
2021/12/16 08:12:52;;;;;;;51.40;26.07;;;6.00;99.90;;;;;;5074262;28;20233;-49
2021/12/16 08:15:19;;;;;;;45.33;24.77;;;6.10;99.90;;;;;;5074532;28;20240;-48
2021/12/16 08:17:46;;;;;;;46.97;25.23;;;6.10;99.90;;;;;;5073922;28;20265;-48
2021/12/16 08:20:16;;;;;;;50.90;25.93;;;6.10;99.90;;;;;;5056035;28;20269;-49
2021/12/16 08:22:44;;;;;;;48.97;26.37;;;6.20;99.90;;;;;;5056787;28;20207;-48
2021/12/16 08:25:10;;;;;;;48.40;25.33;;;6.20;99.90;;;;;;5055794;28;20743;-48
2021/12/16 08:27:38;;;;;;;50.27;26.97;;;6.20;99.90;;;;;;5073668;28;20204;-47
2021/12/16 08:30:06;;;;;;;54.90;25.70;;;6.20;99.90;;;;;;5074322;28;20170;-47
2021/12/16 08:32:32;;;;;;;48.67;26.47;;;6.20;99.90;;;;;;5039266;28;20268;-48
2021/12/16 08:34:58;;;;;;;53.40;26.37;;;6.20;99.90;;;;;;5074060;28;20715;-47
2021/12/16 08:37:24;;;;;;;47.23;25.70;;;6.20;99.90;;;;;;5055767;28;20552;-48
2021/12/16 08:39:51;;;;;;;59.93;27.73;;;6.20;99.90;;;;;;5055864;28;20191;-48
2021/12/16 08:42:17;;;;;;;54.23;27.90;;;6.30;99.90;;;;;;5073656;28;20219;-48
2021/12/16 08:44:43;;;;;;;61.80;30.40;;;6.30;99.90;;;;;;5055502;28;20185;-48
2021/12/16 08:47:12;;;;;;;78.33;37.07;;;6.40;99.90;;;;;;5055543;28;20180;-48
2021/12/16 08:49:39;;;;;;;66.93;34.17;;;6.40;99.90;;;;;;5055595;28;20187;-47
2021/12/16 08:52:12;;;;;;;69.37;31.27;;;6.50;99.90;;;;;;5073480;28;20212;-47
2021/12/16 08:54:39;;;;;;;69.53;31.63;;;6.60;99.90;;;;;;5055677;28;20212;-47
2021/12/16 08:57:06;;;;;;;70.23;32.47;;;6.70;99.90;;;;;;5055735;28;20179;-48
2021/12/16 08:59:32;;;;;;;84.83;36.03;;;6.70;99.90;;;;;;5073691;28;20661;-48
2021/12/16 09:01:59;;;;;;;96.50;41.03;;;6.80;99.90;;;;;;5073663;28;20204;-47
2021/12/16 09:04:26;;;;;;;88.03;34.27;;;6.80;99.90;;;;;;5073628;28;20175;-48
2021/12/16 09:06:53;;;;;;;76.73;33.40;;;6.90;99.90;;;;;;5055369;28;20212;-47
2021/12/16 09:09:19;;;;;;;81.17;33.73;;;6.90;99.90;;;;;;5055480;28;20657;-47
2021/12/16 09:12:03;;;;;;;82.00;32.63;;;6.90;99.90;;;;;;5073709;28;20197;-49
2021/12/16 09:14:30;;;;;;;86.70;34.30;;;7.00;99.90;;;;;;5077274;28;20528;-48
2021/12/16 09:16:56;;;;;;;98.47;35.40;;;7.00;99.90;;;;;;5059493;28;20190;-48
2021/12/16 09:19:22;;;;;;;93.43;35.80;;;7.00;99.90;;;;;;5059478;28;20224;-48
2021/12/16 09:21:47;;;;;;;108.97;38.40;;;7.00;99.90;;;;;;5042754;28;20266;-48
2021/12/16 09:24:14;;;;;;;100.40;35.50;;;7.10;99.90;;;;;;5077445;28;20263;-48
2021/12/16 09:26:42;;;;;;;98.80;35.93;;;7.20;99.90;;;;;;5077418;28;20214;-48
2021/12/16 09:29:07;;;;;;;99.03;35.37;;;7.20;99.90;;;;;;5077228;28;20290;-48
2021/12/16 09:31:34;;;;;;;114.53;42.57;;;7.30;99.90;;;;;;5077382;28;20234;-49
2021/12/16 09:34:06;;;;;;;110.17;39.13;;;7.40;99.90;;;;;;5077296;28;20185;-48
2021/12/16 09:36:33;;;;;;;107.77;36.53;;;7.40;99.90;;;;;;5077023;28;20163;-48
2021/12/16 09:38:59;;;;;;;137.57;39.37;;;7.50;99.90;;;;;;5077257;28;20209;-48
2021/12/16 09:41:28;;;;;;;114.03;38.77;;;7.60;99.90;;;;;;5058777;28;20214;-49
2021/12/16 09:43:56;;;;;;;122.27;40.83;;;7.70;99.90;;;;;;5077096;28;20631;-49
2021/12/16 09:46:24;;;;;;;118.00;39.10;;;7.70;99.90;;;;;;5076656;28;20198;-48
2021/12/16 09:48:51;;;;;;;127.50;40.37;;;7.80;99.90;;;;;;5076941;28;20181;-49
2021/12/16 09:51:23;;;;;;;132.53;41.20;;;7.90;99.90;;;;;;5058647;28;20181;-49
2021/12/16 09:53:51;;;;;;;132.93;49.30;;;8.00;99.90;;;;;;5076543;28;20204;-48
2021/12/16 09:56:18;;;;;;;122.20;42.13;;;8.00;99.90;;;;;;5058697;28;20241;-50
2021/12/16 09:58:46;;;;;;;138.97;48.83;;;8.10;99.90;;;;;;5077171;28;20179;-47
2021/12/16 10:01:14;;;;;;;140.70;42.47;;;8.10;99.90;;;;;;5058384;28;20776;-48
2021/12/16 10:03:50;;;;;;;145.87;45.17;;;8.20;99.90;;;;;;5076388;28;20172;-48
2021/12/16 10:06:17;;;;;;;144.63;43.20;;;8.30;99.90;;;;;;5076565;28;20618;-49
2021/12/16 10:08:43;;;;;;;149.17;46.07;;;8.30;99.90;;;;;;5058405;28;20198;-48
2021/12/16 10:11:09;;;;;;;132.00;45.83;;;8.40;99.90;;;;;;5076436;28;20174;-49
2021/12/16 10:13:43;;;;;;;148.03;47.67;;;8.40;99.90;;;;;;5076397;28;20179;-47
2021/12/16 10:18:37;;;;;;;146.07;48.27;;;8.50;99.90;;;;;;5076743;28;20187;-49
2021/12/16 10:21:06;;;;;;;144.13;52.33;;;8.60;99.90;;;;;;5076051;28;20258;-49
2021/12/16 10:23:36;;;;;;;126.93;45.53;;;8.60;99.90;;;;;;5058201;28;20187;-49
2021/12/16 10:26:09;;;;;;;124.30;47.07;;;8.60;99.90;;;;;;5074509;28;20257;-48
2021/12/16 10:28:37;;;;;;;130.97;47.23;;;8.60;99.90;;;;;;5076272;28;20179;-50
2021/12/16 10:31:14;;;;;;;136.87;48.20;;;8.70;99.90;;;;;;5057878;28;20184;-48
2021/12/16 10:33:44;;;;;;;136.63;48.50;;;8.80;99.90;;;;;;5058119;28;20179;-50
2021/12/16 10:36:10;;;;;;;123.63;46.77;;;8.80;99.90;;;;;;5075886;28;20184;-49
2021/12/16 10:39:07;;;;;;;112.63;44.93;;;8.90;99.90;;;;;;5058223;28;20180;-43
2021/12/16 10:41:37;;;;;;;112.13;43.77;;;8.90;99.90;;;;;;5075796;28;20199;-42
2021/12/16 10:44:14;;;;;;;111.47;44.17;;;9.00;99.90;;;;;;5075843;28;20275;-44
2021/12/16 10:46:59;;;;;;;106.73;43.83;;;9.10;99.90;;;;;;5076538;28;20614;-43
2021/12/16 10:49:30;;;;;;;105.17;41.27;;;9.10;99.90;;;;;;5078375;28;20184;-42
2021/12/16 10:52:13;;;;;;;105.03;45.30;;;9.20;99.90;;;;;;5077536;28;20223;-46
2021/12/16 10:54:41;;;;;;;107.67;43.10;;;9.20;99.90;;;;;;5057879;28;20172;-47
2021/12/16 10:57:22;;;;;;;99.03;41.20;;;9.30;99.90;;;;;;5057594;28;20188;-47
2021/12/16 10:59:53;;;;;;;91.83;41.07;;;9.40;99.90;;;;;;5057588;28;20172;-47
2021/12/16 11:02:21;;;;;;;83.83;38.73;;;9.40;99.90;;;;;;5075696;28;20231;-47
2021/12/16 11:05:11;;;;;;;100.60;44.73;;;9.50;99.90;;;;;;5075197;28;20183;-46
2021/12/16 11:07:39;;;;;;;91.67;39.97;;;9.50;99.90;;;;;;5074933;28;20235;-48
2021/12/16 11:10:21;;;;;;;88.33;40.30;;;9.60;99.90;;;;;;5075491;28;20229;-47
2021/12/16 11:13:17;;;;;;;85.40;40.07;;;9.70;99.90;;;;;;5075380;28;20286;-47
2021/12/16 11:15:47;;;;;;;79.83;37.07;;;9.70;99.90;;;;;;5053359;28;20250;-46
2021/12/16 11:18:20;;;;;;;72.80;37.50;;;9.70;99.90;;;;;;5075086;28;20262;-48
2021/12/16 11:20:58;;;;;;;74.90;35.80;;;9.80;99.90;;;;;;5075312;28;20185;-48
2021/12/16 11:23:28;;;;;;;71.00;38.53;;;9.90;99.90;;;;;;5074947;28;20274;-49
2021/12/16 11:25:56;;;;;;;67.87;35.13;;;10.00;99.90;;;;;;5056891;28;20219;-47
2021/12/16 11:28:32;;;;;;;67.20;36.43;;;10.20;99.90;;;;;;5075094;28;20538;-47
2021/12/16 11:30:59;;;;;;;67.17;35.70;;;10.20;99.90;;;;;;5075204;28;20176;-48
2021/12/16 11:33:29;;;;;;;68.30;34.97;;;10.20;99.90;;;;;;5074787;28;20649;-49
2021/12/16 11:36:04;;;;;;;62.70;34.90;;;10.30;99.90;;;;;;5074536;28;20267;-47
2021/12/16 11:38:40;;;;;;;58.47;34.13;;;10.30;99.90;;;;;;5075031;28;20584;-47
2021/12/16 11:41:27;;;;;;;55.57;32.57;;;10.30;99.90;;;;;;5074622;28;20217;-47
2021/12/16 11:44:17;;;;;;;61.57;34.57;;;10.40;99.90;;;;;;5074790;28;20176;-47
2021/12/16 11:46:51;;;;;;;56.73;32.43;;;10.50;99.90;;;;;;5075049;28;20269;-47
2021/12/16 11:49:25;;;;;;;53.43;31.20;;;10.50;99.90;;;;;;5074359;28;20226;-48
2021/12/16 11:52:20;;;;;;;63.57;32.20;;;10.60;99.90;;;;;;5074477;28;20701;-48
2021/12/16 11:54:49;;;;;;;49.20;29.47;;;10.60;99.90;;;;;;5052396;28;20199;-48
2021/12/16 11:57:35;;;;;;;48.07;29.30;;;10.60;99.90;;;;;;5074901;28;20205;-47
2021/12/16 12:00:16;;;;;;;59.00;29.30;;;10.60;99.90;;;;;;5075399;28;20207;-48
2021/12/16 12:02:52;;;;;;;51.50;29.13;;;10.70;99.90;;;;;;5074828;28;20195;-47
2021/12/16 12:05:42;;;;;;;46.53;28.73;;;10.70;99.90;;;;;;5074749;28;20246;-47
2021/12/16 12:08:14;;;;;;;45.50;27.57;;;10.70;99.90;;;;;;5074406;28;20555;-47
2021/12/16 12:10:59;;;;;;;43.60;27.77;;;10.70;99.90;;;;;;5074172;28;20573;-48
2021/12/16 12:13:46;;;;;;;41.53;26.60;;;10.70;99.90;;;;;;5074036;28;20282;-49
2021/12/16 12:16:15;;;;;;;49.93;27.73;;;10.70;99.90;;;;;;5036373;28;20214;-49
2021/12/16 12:18:47;;;;;;;46.80;27.93;;;10.70;99.90;;;;;;5072776;28;20191;-48
2021/12/16 12:21:32;;;;;;;45.40;27.43;;;10.70;99.90;;;;;;5074488;28;20170;-48
2021/12/16 12:24:12;;;;;;;46.07;28.30;;;10.80;99.90;;;;;;5056589;28;20185;-47
2021/12/16 12:26:42;;;;;;;41.93;26.83;;;10.80;99.90;;;;;;5074265;28;20220;-48
2021/12/16 12:29:31;;;;;;;46.07;27.87;;;10.80;99.90;;;;;;5073680;28;20182;-49
2021/12/16 12:32:28;;;;;;;45.93;27.73;;;10.80;99.90;;;;;;5074448;28;20556;-49
2021/12/16 12:34:57;;;;;;;45.57;26.77;;;10.80;99.90;;;;;;5073600;28;20240;-46
2021/12/16 12:37:25;;;;;;;42.37;28.07;;;10.80;99.90;;;;;;5073646;28;20178;-47
2021/12/16 12:39:55;;;;;;;44.27;27.63;;;10.80;99.90;;;;;;5074028;28;20183;-48
2021/12/16 12:42:21;;;;;;;42.33;26.37;;;10.80;99.90;;;;;;5073841;28;20735;-47
2021/12/16 12:44:47;;;;;;;42.73;27.10;;;10.80;99.90;;;;;;5073713;28;20210;-48
2021/12/16 12:47:17;;;;;;;43.47;28.23;;;10.90;99.90;;;;;;5073257;28;20217;-49
2021/12/16 12:49:44;;;;;;;45.70;27.67;;;10.80;99.90;;;;;;5073810;28;20166;-47
2021/12/16 12:52:14;;;;;;;42.00;26.53;;;10.80;99.90;;;;;;5073664;28;20206;-49
2021/12/16 12:54:43;;;;;;;41.87;26.23;;;10.80;99.90;;;;;;5055749;28;20186;-49
2021/12/16 12:57:45;;;;;;;41.00;27.40;;;10.80;99.90;;;;;;5073604;28;20210;-47
2021/12/16 13:00:33;;;;;;;46.17;25.27;;;10.80;99.90;;;;;;4973259;28;20195;-49
2021/12/16 13:03:02;;;;;;;43.17;26.60;;;10.80;99.90;;;;;;5070130;28;20655;-48
2021/12/16 13:05:29;;;;;;;42.07;27.93;;;10.80;99.90;;;;;;5055816;28;20577;-47
2021/12/16 13:08:03;;;;;;;45.17;27.23;;;10.80;99.90;;;;;;5073808;28;20330;-49
2021/12/16 13:10:48;;;;;;;42.83;26.30;;;10.80;99.90;;;;;;5074218;28;20158;-48
2021/12/16 13:15:53;;;;;;;44.93;26.00;;;10.80;99.90;;;;;;5073803;28;20639;-48
2021/12/16 13:26:48;;;;;;;34.83;23.60;;;10.80;99.90;;;;;;5073387;28;20384;-47
2021/12/16 13:32:19;;;;;;;39.13;25.17;;;10.80;99.90;;;;;;5074087;28;20209;-46
2021/12/16 13:35:08;;;;;;;43.80;25.57;;;10.80;99.90;;;;;;5073500;28;20159;-45
2021/12/16 13:37:40;;;;;;;45.43;25.50;;;10.80;99.90;;;;;;5073560;28;20155;-44
2021/12/16 13:40:22;;;;;;;40.93;25.03;;;10.80;99.90;;;;;;5055160;28;20163;-45
2021/12/16 13:42:50;;;;;;;43.47;25.47;;;10.80;99.90;;;;;;5055354;28;20240;-43
2021/12/16 13:45:24;;;;;;;40.67;25.17;;;10.80;99.90;;;;;;5055167;28;20289;-45
2021/12/16 14:05:31;;;;;;;40.23;25.10;;;10.90;99.90;;;;;;5076365;28;20209;-45
2021/12/16 14:08:01;;;;;;;40.67;25.00;;;10.80;99.90;;;;;;5076729;28;20171;-45
2021/12/16 14:10:44;;;;;;;39.00;25.30;;;10.80;99.90;;;;;;5076856;28;20669;-45
2021/12/16 14:46:59;;;;;;;40.80;25.93;;;10.80;99.90;;;;;;5075684;28;20606;-44
2021/12/16 14:49:41;;;;;;;36.97;25.27;;;10.80;99.90;;;;;;5075726;28;20159;-44
2021/12/16 14:52:17;;;;;;;35.57;23.50;;;10.80;99.90;;;;;;5076162;28;20600;-46
2021/12/16 14:54:54;;;;;;;35.23;24.30;;;10.80;99.90;;;;;;5076146;28;20194;-45
2021/12/16 14:57:22;;;;;;;37.07;24.53;;;10.80;99.90;;;;;;5076294;28;20167;-46
2021/12/16 14:59:48;;;;;;;36.23;23.23;;;10.80;99.90;;;;;;5075489;28;20180;-47
2021/12/16 15:02:16;;;;;;;38.77;24.90;;;10.80;99.90;;;;;;5075381;28;20194;-46
2021/12/16 15:04:42;;;;;;;34.53;23.83;;;10.80;99.90;;;;;;5057467;28;20281;-46
2021/12/16 15:07:10;;;;;;;42.97;26.20;;;10.80;99.90;;;;;;5075505;28;20293;-46
2021/12/16 15:09:39;;;;;;;44.80;25.43;;;10.80;99.90;;;;;;5057230;28;20673;-45
2021/12/16 15:12:21;;;;;;;39.27;25.30;;;10.70;99.90;;;;;;5074477;28;20298;-46
2021/12/16 15:37:15;;;;;;;30.53;21.27;;;10.50;99.90;;;;;;5075242;28;20212;-47
2021/12/16 15:42:52;;;;;;;33.93;21.63;;;10.50;99.90;;;;;;5075081;28;20291;-49
2021/12/16 15:45:23;;;;;;;38.30;21.90;;;10.40;99.90;;;;;;5075000;28;20186;-48
2021/12/16 15:47:58;;;;;;;32.63;20.73;;;10.40;99.90;;;;;;5056782;28;20635;-47
2021/12/16 15:50:34;;;;;;;32.90;22.33;;;10.40;99.90;;;;;;5074937;28;20166;-48
2021/12/16 15:53:01;;;;;;;34.87;22.50;;;10.40;99.90;;;;;;5074483;28;20239;-49
2021/12/16 15:55:38;;;;;;;34.17;21.93;;;10.30;99.90;;;;;;5075260;28;20182;-48
2021/12/16 15:58:20;;;;;;;37.33;21.87;;;10.30;99.90;;;;;;5074522;28;20177;-49
2021/12/16 16:00:50;;;;;;;36.37;22.13;;;10.30;99.90;;;;;;5056473;28;20639;-49
2021/12/16 16:03:17;;;;;;;44.00;25.77;;;10.30;99.90;;;;;;5074374;28;20205;-48
2021/12/16 16:05:46;;;;;;;88.63;54.30;;;10.20;99.90;;;;;;5074494;28;20209;-48
2021/12/16 16:08:14;;;;;;;50.37;31.00;;;10.20;99.90;;;;;;5074267;28;20183;-47
2021/12/16 16:10:41;;;;;;;40.07;24.47;;;10.20;99.90;;;;;;5074348;28;20265;-47
2021/12/16 16:13:17;;;;;;;37.83;24.97;;;10.10;99.90;;;;;;5073950;28;20238;-47
2021/12/16 16:15:45;;;;;;;38.33;25.60;;;10.10;99.90;;;;;;5056265;28;20604;-49
2021/12/16 16:18:34;;;;;;;48.30;28.10;;;10.10;99.90;;;;;;5074047;28;20198;-47
2021/12/16 16:21:21;;;;;;;80.57;51.80;;;10.10;99.90;;;;;;5059580;28;20191;-48
2021/12/16 16:23:59;;;;;;;80.73;54.10;;;10.10;99.90;;;;;;5073192;28;20159;-48
2021/12/16 16:26:26;;;;;;;54.40;35.60;;;10.00;99.90;;;;;;5073991;28;20693;-47
2021/12/16 16:28:59;;;;;;;50.30;30.23;;;10.00;99.90;;;;;;5056094;28;20222;-47
2021/12/16 16:31:27;;;;;;;39.43;25.07;;;10.00;99.90;;;;;;5055996;28;20210;-46
2021/12/16 16:33:54;;;;;;;39.27;26.00;;;10.00;99.90;;;;;;5073652;28;20187;-48
2021/12/16 16:36:32;;;;;;;42.50;26.83;;;10.00;99.90;;;;;;5073710;28;20699;-47
2021/12/16 16:39:03;;;;;;;42.33;25.90;;;10.00;99.90;;;;;;5074091;28;20622;-48
2021/12/16 16:41:31;;;;;;;40.87;25.90;;;10.00;99.90;;;;;;5056268;28;20606;-47
2021/12/16 16:44:02;;;;;;;41.60;25.73;;;9.90;99.90;;;;;;5073800;28;20245;-47
2021/12/16 16:46:41;;;;;;;38.83;24.43;;;9.90;99.90;;;;;;5073727;28;20198;-47
2021/12/16 16:49:10;;;;;;;41.13;25.80;;;9.90;99.90;;;;;;5073535;28;20589;-48